Rahns, Pennsylvania
Current Conditions -  °F | °C
As of 6:54 PM on Monday 22 Dec 2014 (Local Time) from KPTW Reporting Station
Light Rain Light Rain  
Wind Chill: 33°   Ceiling: 7000
Heat Index: 38°   Visibility: 7mi
Dew Point: 36°   Wind: 7mph
Humidity: 93%   Direction: 60°ENE
Pressure: 30.19"   Gusts: NA
Location:  40.1903°N, 75.4384°W
Report Text: KPTW 222354Z AUTO 06006KT 7SM -RA FEW025 OVC070 03/02 A3019 RMK AO2 RAB11 SLP224 P0000 60000 T00330022 10056 20033 56001
Loading
Personal Weather Stations






























Interactive Weather Map New forecast layout! Learn more

10-Day Weather Forecast

Advertisements
Track Severe Weather on mobile